createdAt,value
2018-04-19T00:00:00.653Z,16.10
2018-04-19T00:02:28.423Z,16.20
2018-04-19T00:04:57.397Z,16.20
2018-04-19T00:07:25.186Z,16.10
2018-04-19T00:09:52.658Z,16.10
2018-04-19T00:12:20.405Z,16.20
2018-04-19T00:14:47.878Z,16.20
2018-04-19T00:17:15.630Z,16.20
2018-04-19T00:19:43.105Z,16.20
2018-04-19T00:22:10.575Z,16.20
2018-04-19T00:24:38.114Z,16.20
2018-04-19T00:27:05.682Z,16.20
2018-04-19T00:29:33.137Z,16.20
2018-04-19T00:32:00.612Z,16.10
2018-04-19T00:34:28.129Z,16.10
2018-04-19T00:36:55.570Z,16.00
2018-04-19T00:39:23.027Z,16.00
2018-04-19T00:41:50.493Z,16.00
2018-04-19T00:44:18.291Z,15.90
2018-04-19T00:46:47.254Z,15.80
2018-04-19T00:49:14.726Z,15.90
2018-04-19T00:51:42.418Z,15.80
2018-04-19T00:54:09.954Z,15.80
2018-04-19T00:56:37.419Z,15.70
2018-04-19T00:59:04.954Z,15.60
2018-04-19T01:01:32.433Z,15.60
2018-04-19T01:03:59.900Z,15.50
2018-04-19T01:06:27.557Z,15.40
2018-04-19T01:08:55.022Z,15.40
2018-04-19T01:11:22.511Z,15.40
2018-04-19T01:13:50.234Z,15.40
2018-04-19T01:16:17.719Z,15.40
2018-04-19T01:18:45.998Z,15.30
2018-04-19T01:21:13.453Z,15.40
2018-04-19T01:23:40.985Z,15.30
2018-04-19T01:26:08.759Z,15.30
2018-04-19T01:28:36.231Z,15.30
2018-04-19T01:31:03.827Z,15.20
2018-04-19T01:33:31.350Z,15.20
2018-04-19T01:36:10.883Z,15.10
2018-04-19T01:38:38.370Z,15.00
2018-04-19T01:41:06.591Z,14.90
2018-04-19T01:43:34.054Z,14.80
2018-04-19T01:46:01.532Z,14.80
2018-04-19T01:48:28.988Z,14.70
2018-04-19T01:50:56.490Z,14.70
2018-04-19T01:53:24.001Z,14.60
2018-04-19T01:55:51.679Z,14.50
2018-04-19T01:58:19.155Z,14.50
2018-04-19T02:00:46.684Z,14.40
2018-04-19T02:03:14.147Z,14.30
2018-04-19T02:05:41.910Z,14.30
2018-04-19T02:08:09.386Z,14.30
2018-04-19T02:10:37.131Z,14.20
2018-04-19T02:13:04.899Z,14.20
2018-04-19T02:15:32.659Z,14.20
2018-04-19T02:18:00.276Z,14.30
2018-04-19T02:20:27.801Z,14.10
2018-04-19T02:22:55.342Z,14.20
2018-04-19T02:25:23.111Z,14.20
2018-04-19T02:27:51.106Z,14.20
2018-04-19T02:30:18.649Z,14.30
2018-04-19T02:32:46.111Z,14.30
2018-04-19T02:35:13.781Z,14.30
2018-04-19T02:37:41.327Z,14.30
2018-04-19T02:40:09.084Z,14.30
2018-04-19T02:42:36.554Z,14.30
2018-04-19T02:45:04.307Z,14.20
2018-04-19T02:47:32.075Z,14.20
2018-04-19T02:49:59.551Z,14.20
2018-04-19T02:52:27.130Z,14.10
2018-04-19T02:54:54.758Z,14.20
2018-04-19T02:57:22.519Z,14.10
2018-04-19T02:59:49.990Z,14.10
2018-04-19T03:02:17.656Z,14.00
2018-04-19T03:04:45.202Z,13.90
2018-04-19T03:07:12.966Z,14.00
2018-04-19T03:09:40.429Z,14.00
2018-04-19T03:12:08.115Z,13.90
2018-04-19T03:14:35.647Z,13.90
2018-04-19T03:17:03.135Z,13.90
2018-04-19T03:19:30.608Z,13.90
2018-04-19T03:21:58.150Z,13.90
2018-04-19T03:24:26.404Z,13.90
2018-04-19T03:26:53.877Z,13.80
2018-04-19T03:29:21.346Z,13.90
2018-04-19T03:31:48.998Z,13.90
2018-04-19T03:34:16.461Z,13.90
2018-04-19T03:36:43.994Z,13.80
2018-04-19T03:39:11.471Z,13.80
2018-04-19T03:41:39.015Z,13.70
2018-04-19T03:44:06.503Z,13.70
2018-04-19T03:46:34.751Z,13.90
2018-04-19T03:49:02.218Z,13.80
2018-04-19T03:51:30.097Z,13.80
2018-04-19T03:53:58.363Z,13.80
2018-04-19T03:56:25.822Z,13.80
2018-04-19T03:58:53.578Z,13.80
2018-04-19T04:01:21.076Z,13.80
2018-04-19T04:03:48.623Z,13.80
2018-04-19T04:06:16.854Z,13.80
2018-04-19T04:08:44.329Z,13.80
2018-04-19T04:11:11.801Z,13.80
2018-04-19T04:13:39.554Z,13.80
2018-04-19T04:16:07.324Z,13.80
2018-04-19T04:18:46.672Z,13.80
2018-04-19T04:21:19.133Z,13.80
2018-04-19T04:23:52.452Z,13.70
2018-04-19T04:26:19.918Z,13.60
2018-04-19T04:28:47.563Z,13.50
2018-04-19T04:31:15.126Z,13.50
2018-04-19T04:33:42.590Z,13.40
2018-04-19T04:36:10.338Z,13.50
2018-04-19T04:38:37.812Z,13.40
2018-04-19T04:41:05.263Z,13.40
2018-04-19T04:43:32.941Z,13.40
2018-04-19T04:46:00.429Z,13.40
2018-04-19T04:48:27.885Z,13.40
2018-04-19T04:50:55.346Z,13.40
2018-04-19T04:53:22.811Z,13.50
2018-04-19T04:55:50.307Z,13.50
2018-04-19T04:58:18.078Z,13.50
2018-04-19T05:00:45.835Z,13.50
2018-04-19T05:03:13.298Z,13.50
2018-04-19T05:05:40.762Z,13.40
2018-04-19T05:08:08.223Z,13.40
2018-04-19T05:10:35.688Z,13.30
2018-04-19T05:13:03.436Z,13.20
2018-04-19T05:15:30.902Z,13.10
2018-04-19T05:17:58.481Z,13.10
2018-04-19T05:20:26.352Z,13.10
2018-04-19T05:22:53.870Z,13.10
2018-04-19T05:25:21.330Z,13.10
2018-04-19T05:27:49.027Z,13.10
2018-04-19T05:30:16.484Z,13.20
2018-04-19T05:32:44.019Z,13.30
2018-04-19T05:35:11.478Z,13.30
2018-04-19T05:37:38.944Z,13.30
2018-04-19T05:40:06.702Z,13.30
2018-04-19T05:42:34.391Z,13.30
2018-04-19T05:45:01.969Z,13.30
2018-04-19T05:47:29.435Z,13.40
2018-04-19T05:49:57.012Z,13.40
2018-04-19T05:52:24.479Z,13.50
2018-04-19T05:54:51.987Z,13.70
2018-04-19T05:57:19.458Z,13.80
2018-04-19T05:59:46.928Z,13.90
2018-04-19T06:02:14.404Z,14.00
2018-04-19T06:04:41.862Z,14.10
2018-04-19T06:07:09.337Z,14.20
2018-04-19T06:09:36.794Z,14.30
2018-04-19T06:12:04.267Z,14.40
2018-04-19T06:14:31.729Z,14.50
2018-04-19T06:17:00.015Z,14.60
2018-04-19T06:19:27.498Z,14.60
2018-04-19T06:21:54.962Z,14.70
2018-04-19T06:24:22.479Z,14.70
2018-04-19T06:26:50.013Z,14.80
2018-04-19T06:29:17.481Z,14.80
2018-04-19T06:31:44.946Z,14.90
2018-04-19T06:34:12.600Z,15.00
2018-04-19T06:36:40.080Z,15.10
2018-04-19T06:39:08.307Z,15.50
2018-04-19T06:41:35.820Z,15.50
2018-04-19T06:44:03.304Z,15.70
2018-04-19T06:46:30.759Z,15.80
2018-04-19T06:48:58.902Z,15.90
2018-04-19T06:51:26.378Z,16.20
2018-04-19T06:53:53.833Z,16.40
2018-04-19T06:56:21.582Z,16.60
2018-04-19T06:58:49.255Z,16.70
2018-04-19T07:01:16.751Z,16.80
2018-04-19T07:03:44.210Z,16.90
2018-04-19T07:06:11.675Z,17.10
2018-04-19T07:08:39.139Z,17.20
2018-04-19T07:11:06.642Z,17.30
2018-04-19T07:13:35.614Z,17.50
2018-04-19T07:16:03.181Z,17.50
2018-04-19T07:18:30.656Z,17.60
2018-04-19T07:20:58.293Z,17.70
2018-04-19T07:23:25.758Z,17.80
2018-04-19T07:25:53.302Z,17.90
2018-04-19T07:28:20.907Z,17.90
2018-04-19T07:30:48.374Z,18.00
2018-04-19T07:33:15.830Z,18.20
2018-04-19T07:35:43.351Z,18.40
2018-04-19T07:38:10.816Z,18.60
2018-04-19T07:40:38.270Z,18.80
2018-04-19T07:43:05.799Z,18.90
2018-04-19T07:45:33.514Z,19.10
2018-04-19T07:48:01.273Z,19.30
2018-04-19T07:50:28.734Z,19.60
2018-04-19T07:52:56.494Z,19.80
2018-04-19T07:55:23.950Z,20.10
2018-04-19T07:57:53.157Z,21.60
2018-04-19T08:00:20.710Z,20.70
2018-04-19T08:02:49.705Z,21.50
2018-04-19T08:05:17.187Z,21.50
2018-04-19T08:07:44.930Z,21.90
2018-04-19T08:10:12.415Z,22.40
2018-04-19T08:12:40.651Z,23.60
2018-04-19T08:15:08.111Z,23.60
2018-04-19T08:17:35.562Z,24.90
2018-04-19T08:20:03.035Z,25.00
2018-04-19T08:22:30.598Z,24.10
2018-04-19T08:24:58.077Z,23.10
2018-04-19T08:27:25.530Z,23.30
2018-04-19T08:29:53.194Z,25.40
2018-04-19T08:32:20.662Z,28.10
2018-04-19T08:34:48.203Z,29.50
2018-04-19T08:37:15.659Z,30.10
2018-04-19T08:39:43.130Z,29.90
2018-04-19T08:42:10.882Z,29.40
2018-04-19T08:44:38.372Z,28.20
2018-04-19T08:47:06.102Z,27.20
2018-04-19T08:49:33.874Z,26.20
2018-04-19T08:52:01.543Z,25.40
2018-04-19T08:54:29.026Z,24.70
2018-04-19T08:56:56.554Z,24.30
2018-04-19T08:59:24.315Z,24.10
2018-04-19T09:01:52.078Z,23.90
2018-04-19T09:04:19.846Z,24.30
2018-04-19T09:06:47.312Z,26.90
2018-04-19T09:09:15.027Z,29.80
2018-04-19T09:11:42.487Z,31.00
2018-04-19T09:14:09.991Z,32.10
2018-04-19T09:16:37.654Z,32.50
2018-04-19T09:19:05.114Z,33.40
2018-04-19T09:21:32.601Z,34.00
2018-04-19T09:24:00.054Z,34.50
2018-04-19T09:26:27.511Z,35.40
2018-04-19T09:28:54.979Z,35.90
2018-04-19T09:31:22.502Z,36.20
2018-04-19T09:33:50.794Z,36.60
2018-04-19T09:36:18.343Z,36.60
2018-04-19T09:38:47.331Z,37.10
2018-04-19T09:41:16.296Z,37.80
2018-04-19T09:43:43.783Z,37.80
2018-04-19T09:46:12.751Z,37.50
2018-04-19T09:48:40.275Z,37.50
2018-04-19T09:51:07.741Z,37.80
2018-04-19T09:53:35.192Z,37.60
2018-04-19T09:56:02.913Z,37.10
2018-04-19T09:58:31.909Z,36.80
2018-04-19T10:01:04.950Z,36.80
2018-04-19T10:03:38.114Z,37.30
2018-04-19T10:06:08.500Z,37.30
2018-04-19T10:08:36.070Z,37.30
2018-04-19T10:11:03.526Z,37.40
2018-04-19T10:13:31.017Z,37.70
2018-04-19T10:15:58.525Z,38.20
2018-04-19T10:18:26.863Z,38.80
2018-04-19T10:20:55.315Z,38.90
2018-04-19T10:23:22.779Z,38.80
2018-04-19T10:25:50.550Z,39.10
2018-04-19T10:28:18.013Z,38.90
2018-04-19T10:30:45.681Z,39.10
2018-04-19T10:33:14.026Z,38.30
2018-04-19T10:35:41.515Z,38.30
2018-04-19T10:38:08.966Z,38.30
2018-04-19T10:40:36.428Z,37.90
2018-04-19T10:43:03.924Z,38.00
2018-04-19T10:45:31.443Z,37.90
2018-04-19T10:47:59.198Z,38.70
2018-04-19T10:50:26.666Z,39.30
2018-04-19T10:52:54.123Z,39.90
2018-04-19T10:55:21.590Z,39.50
2018-04-19T10:57:49.068Z,38.80
2018-04-19T11:00:16.794Z,39.00
2018-04-19T11:02:44.558Z,39.10
2018-04-19T11:05:12.323Z,38.60
2018-04-19T11:07:40.092Z,38.50
2018-04-19T11:10:07.549Z,38.80
2018-04-19T11:12:35.226Z,39.30
2018-04-19T11:15:02.770Z,40.20
2018-04-19T11:17:30.367Z,41.10
2018-04-19T11:19:57.822Z,40.60
2018-04-19T11:22:26.377Z,40.70
2018-04-19T11:24:53.833Z,40.70
2018-04-19T11:27:21.289Z,41.00
2018-04-19T11:29:49.052Z,41.00
2018-04-19T11:32:16.838Z,41.00
2018-04-19T11:34:44.490Z,40.40
2018-04-19T11:37:11.972Z,40.80
2018-04-19T11:39:39.439Z,41.00
2018-04-19T11:42:06.898Z,41.30
2018-04-19T11:44:34.359Z,42.00
2018-04-19T11:47:01.826Z,42.20
2018-04-19T11:49:29.294Z,42.10
2018-04-19T11:51:56.753Z,42.20
2018-04-19T11:54:24.206Z,42.20
2018-04-19T11:56:51.662Z,41.50
2018-04-19T11:59:19.122Z,42.10
2018-04-19T12:01:46.582Z,42.60
2018-04-19T12:04:14.038Z,41.80
2018-04-19T12:06:41.510Z,41.70
2018-04-19T12:09:08.963Z,41.90
2018-04-19T12:11:36.455Z,42.00
2018-04-19T12:14:03.923Z,41.50
2018-04-19T12:16:32.299Z,41.70
2018-04-19T12:18:59.752Z,42.40
2018-04-19T12:21:27.214Z,43.00
2018-04-19T12:23:54.681Z,42.90
2018-04-19T12:26:22.142Z,42.40
2018-04-19T12:28:49.805Z,41.60
2018-04-19T12:31:18.231Z,42.10
2018-04-19T12:33:45.734Z,42.10
2018-04-19T12:36:13.190Z,42.90
2018-04-19T12:38:40.886Z,43.20
2018-04-19T12:41:08.411Z,43.40
2018-04-19T12:43:35.865Z,43.30
2018-04-19T12:46:03.328Z,43.40
2018-04-19T12:48:30.784Z,43.60
2018-04-19T12:50:58.252Z,43.50
2018-04-19T12:53:26.010Z,44.00
2018-04-19T12:55:53.769Z,44.20
2018-04-19T12:58:21.228Z,44.10
2018-04-19T13:00:48.994Z,43.70
2018-04-19T13:03:16.455Z,43.10
2018-04-19T13:05:43.920Z,43.50
2018-04-19T13:08:11.678Z,42.90
2018-04-19T13:10:39.138Z,42.70
2018-04-19T13:13:06.903Z,43.00
2018-04-19T13:15:34.675Z,43.00
2018-04-19T13:18:02.363Z,42.80
2018-04-19T13:20:29.883Z,42.20
2018-04-19T13:22:57.654Z,42.30
2018-04-19T13:25:25.121Z,42.10
2018-04-19T13:27:53.183Z,42.70
2018-04-19T13:30:20.668Z,43.00
2018-04-19T13:32:48.318Z,42.90
2018-04-19T13:35:16.794Z,42.30
2018-04-19T13:37:44.241Z,42.40
2018-04-19T13:40:12.021Z,42.50
2018-04-19T13:42:39.481Z,42.90
2018-04-19T13:45:07.157Z,43.20
2018-04-19T13:47:34.614Z,43.70
2018-04-19T13:50:02.076Z,43.40
2018-04-19T13:52:29.542Z,43.10
2018-04-19T13:54:57.034Z,42.80
2018-04-19T13:57:24.468Z,42.30
2018-04-19T13:59:51.945Z,42.20
2018-04-19T14:02:19.407Z,42.60
2018-04-19T14:04:46.869Z,42.70
2018-04-19T14:07:14.336Z,42.50
2018-04-19T14:09:41.802Z,42.80
2018-04-19T14:12:09.361Z,43.30
2018-04-19T14:14:36.814Z,43.60
2018-04-19T14:17:04.399Z,43.40
2018-04-19T14:19:31.970Z,42.60
2018-04-19T14:21:59.725Z,41.30
2018-04-19T14:24:27.193Z,39.90
2018-04-19T14:26:54.762Z,38.60
2018-04-19T14:29:22.994Z,36.60
2018-04-19T14:31:50.461Z,36.60
2018-04-19T14:34:18.149Z,35.80
2018-04-19T14:36:45.599Z,35.30
2018-04-19T14:39:13.061Z,34.90
2018-04-19T14:41:41.294Z,34.70
2018-04-19T14:44:08.846Z,34.70
2018-04-19T14:46:36.451Z,34.60
2018-04-19T14:49:04.219Z,34.60
2018-04-19T14:51:31.674Z,34.70
2018-04-19T14:53:59.135Z,34.70
2018-04-19T14:56:26.594Z,34.70
2018-04-19T14:58:55.571Z,34.10
2018-04-19T15:01:23.050Z,34.10
2018-04-19T15:03:52.043Z,34.10
2018-04-19T15:06:21.015Z,34.20
2018-04-19T15:08:48.472Z,34.20
2018-04-19T15:11:15.938Z,34.40
2018-04-19T15:13:43.390Z,34.60
2018-04-19T15:16:11.063Z,35.10
2018-04-19T15:18:38.636Z,35.00
2018-04-19T15:21:07.626Z,34.90
2018-04-19T15:23:36.594Z,34.70
2018-04-19T15:26:04.055Z,34.80
2018-04-19T15:28:31.537Z,34.70
2018-04-19T15:30:58.990Z,34.90
2018-04-19T15:33:26.450Z,34.40
2018-04-19T15:35:53.906Z,33.90
2018-04-19T15:38:21.879Z,33.40
2018-04-19T15:40:49.382Z,33.40
2018-04-19T15:43:17.042Z,33.60
2018-04-19T15:45:44.578Z,33.60
2018-04-19T15:48:12.035Z,33.50
2018-04-19T15:50:39.669Z,33.40
2018-04-19T15:53:07.135Z,33.50
2018-04-19T15:55:34.599Z,33.20
2018-04-19T15:58:02.070Z,33.00
2018-04-19T16:00:29.720Z,33.00
2018-04-19T16:02:57.178Z,32.70
2018-04-19T16:05:24.637Z,32.60
2018-04-19T16:07:52.899Z,32.40
2018-04-19T16:10:20.357Z,32.00
2018-04-19T16:12:47.832Z,31.60
2018-04-19T16:15:15.394Z,31.50
2018-04-19T16:17:43.006Z,31.40
2018-04-19T16:20:10.486Z,31.20
2018-04-19T16:22:37.990Z,31.10
2018-04-19T16:25:05.531Z,31.00
2018-04-19T16:27:33.210Z,31.00
2018-04-19T16:30:00.667Z,30.90
2018-04-19T16:32:28.131Z,30.80
2018-04-19T16:34:55.582Z,30.70
2018-04-19T16:37:23.143Z,30.60
2018-04-19T16:39:50.886Z,30.50
2018-04-19T16:42:18.358Z,30.60
2018-04-19T16:44:45.827Z,30.50
2018-04-19T16:47:13.480Z,30.70
2018-04-19T16:49:40.978Z,30.80
2018-04-19T16:52:08.493Z,31.00
2018-04-19T16:54:35.971Z,31.20
2018-04-19T16:57:03.552Z,31.30
2018-04-19T16:59:31.069Z,31.40
2018-04-19T17:01:58.540Z,31.60
2018-04-19T17:04:26.095Z,31.90
2018-04-19T17:06:54.426Z,31.80
2018-04-19T17:09:22.022Z,31.70
2018-04-19T17:11:49.495Z,31.70
2018-04-19T17:14:17.039Z,31.30
2018-04-19T17:16:44.535Z,31.10
2018-04-19T17:19:12.055Z,30.60
2018-04-19T17:21:39.614Z,30.10
2018-04-19T17:24:07.136Z,29.80
2018-04-19T17:26:34.648Z,29.50
2018-04-19T17:29:02.145Z,29.30
2018-04-19T17:31:29.666Z,29.10
2018-04-19T17:33:57.164Z,28.90
2018-04-19T17:36:24.682Z,28.70
2018-04-19T17:38:52.261Z,28.50
2018-04-19T17:41:19.835Z,28.40
2018-04-19T17:43:47.320Z,28.40
2018-04-19T17:46:14.890Z,28.30
2018-04-19T17:48:42.442Z,28.20
2018-04-19T17:51:10.016Z,28.00
2018-04-19T17:53:37.519Z,27.90
2018-04-19T17:56:05.800Z,27.80
2018-04-19T17:58:33.409Z,27.70
2018-04-19T18:01:00.933Z,27.60
2018-04-19T18:03:28.937Z,27.50
2018-04-19T18:05:56.570Z,27.40
2018-04-19T18:08:24.082Z,27.20
2018-04-19T18:10:51.597Z,27.10
2018-04-19T18:13:19.145Z,27.10
2018-04-19T18:15:46.671Z,26.90
2018-04-19T18:18:14.195Z,26.70
2018-04-19T18:20:41.794Z,26.70
2018-04-19T18:23:09.331Z,26.60
2018-04-19T18:25:36.968Z,26.60
2018-04-19T18:28:04.577Z,26.50
2018-04-19T18:30:32.189Z,26.40
2018-04-19T18:32:59.675Z,26.30
2018-04-19T18:35:27.277Z,26.10
2018-04-19T18:37:55.681Z,25.90
2018-04-19T18:40:23.315Z,25.90
2018-04-19T18:42:50.877Z,25.80
2018-04-19T18:45:18.332Z,25.70
2018-04-19T18:47:46.125Z,25.60
2018-04-19T18:50:13.779Z,25.60
2018-04-19T18:52:41.271Z,25.50
2018-04-19T18:55:08.810Z,25.40
2018-04-19T18:57:36.291Z,25.30
2018-04-19T19:00:03.784Z,25.20
2018-04-19T19:02:31.293Z,25.10
2018-04-19T19:04:58.859Z,25.00
2018-04-19T19:07:26.359Z,25.00
2018-04-19T19:09:53.875Z,24.80
2018-04-19T19:12:21.432Z,24.70
2018-04-19T19:14:48.951Z,24.50
2018-04-19T19:17:28.149Z,24.50
2018-04-19T19:20:07.521Z,24.30
2018-04-19T19:22:35.053Z,24.10
2018-04-19T19:25:02.517Z,24.10
2018-04-19T19:27:30.096Z,24.00
2018-04-19T19:29:57.664Z,23.80
2018-04-19T19:32:25.210Z,23.70
2018-04-19T19:34:52.880Z,23.60
2018-04-19T19:37:20.345Z,23.50
2018-04-19T19:39:48.644Z,23.30
2018-04-19T19:42:16.887Z,23.20
2018-04-19T19:44:44.363Z,23.20
2018-04-19T19:47:11.901Z,23.10
2018-04-19T19:49:39.397Z,23.00
2018-04-19T19:52:07.735Z,22.90
2018-04-19T19:54:35.257Z,22.80
2018-04-19T19:57:02.756Z,22.90
2018-04-19T19:59:30.310Z,22.90
2018-04-19T20:01:57.846Z,22.80
2018-04-19T20:04:25.364Z,22.70
2018-04-19T20:06:53.664Z,22.60
2018-04-19T20:09:21.119Z,22.60
2018-04-19T20:11:48.882Z,22.60
2018-04-19T20:14:16.358Z,22.50
2018-04-19T20:16:43.871Z,22.50
2018-04-19T20:19:11.405Z,22.40
2018-04-19T20:21:38.909Z,22.30
2018-04-19T20:24:06.419Z,22.20
2018-04-19T20:26:33.927Z,22.10
2018-04-19T20:29:01.402Z,21.90
2018-04-19T20:31:28.897Z,21.70
2018-04-19T20:33:56.354Z,21.50
2018-04-19T20:36:23.887Z,21.30
2018-04-19T20:38:51.350Z,21.30
2018-04-19T20:41:18.855Z,21.20
2018-04-19T20:43:46.350Z,21.20
2018-04-19T20:46:13.909Z,21.20
2018-04-19T20:48:41.407Z,21.10
2018-04-19T20:51:08.883Z,21.10
2018-04-19T20:53:36.560Z,21.10
2018-04-19T20:56:04.063Z,21.10
2018-04-19T20:58:31.770Z,21.00
2018-04-19T21:00:59.494Z,20.90
2018-04-19T21:03:26.955Z,20.80
2018-04-19T21:05:54.417Z,20.80
2018-04-19T21:08:21.884Z,20.80
2018-04-19T21:10:49.416Z,20.70
2018-04-19T21:13:16.977Z,20.60
2018-04-19T21:15:44.614Z,20.60
2018-04-19T21:18:12.122Z,20.50
2018-04-19T21:20:39.722Z,20.50
2018-04-19T21:23:07.281Z,20.40
2018-04-19T21:25:34.747Z,20.20
2018-04-19T21:28:02.574Z,20.00
2018-04-19T21:30:30.265Z,19.80
2018-04-19T21:32:57.746Z,19.70
2018-04-19T21:35:25.328Z,19.60
2018-04-19T21:37:53.087Z,19.60
2018-04-19T21:40:20.612Z,19.40
2018-04-19T21:42:48.167Z,19.30
2018-04-19T21:45:15.658Z,19.20
2018-04-19T21:47:43.215Z,19.00
2018-04-19T21:50:11.558Z,18.80
2018-04-19T21:52:39.022Z,18.80
2018-04-19T21:55:06.530Z,18.80
2018-04-19T21:57:34.133Z,18.70
2018-04-19T22:00:01.664Z,18.70
2018-04-19T22:02:29.170Z,18.60
2018-04-19T22:04:56.687Z,18.50
2018-04-19T22:07:24.206Z,18.40
2018-04-19T22:09:51.739Z,18.40
2018-04-19T22:12:19.248Z,18.30
2018-04-19T22:14:46.810Z,18.20
2018-04-19T22:17:14.238Z,18.20
2018-04-19T22:19:42.478Z,18.00
2018-04-19T22:22:09.991Z,18.00
2018-04-19T22:24:38.215Z,18.00
2018-04-19T22:27:05.715Z,17.90
2018-04-19T22:29:33.266Z,18.00
2018-04-19T22:32:00.827Z,18.00
2018-04-19T22:34:28.364Z,18.00
2018-04-19T22:36:55.838Z,17.90
2018-04-19T22:39:23.350Z,17.90
2018-04-19T22:41:50.830Z,17.80
2018-04-19T22:44:18.335Z,17.90
2018-04-19T22:46:45.858Z,17.80
2018-04-19T22:49:14.169Z,17.80
2018-04-19T22:51:41.685Z,17.80
2018-04-19T22:54:09.370Z,17.90
2018-04-19T22:56:38.359Z,17.90
2018-04-19T22:59:05.865Z,17.90
2018-04-19T23:01:33.371Z,17.90
2018-04-19T23:04:00.849Z,17.90
2018-04-19T23:06:28.315Z,17.80
2018-04-19T23:08:56.583Z,17.60
2018-04-19T23:11:24.354Z,17.50
2018-04-19T23:13:51.827Z,17.40
2018-04-19T23:16:19.524Z,17.40
2018-04-19T23:18:47.031Z,17.30
2018-04-19T23:21:16.020Z,17.10
2018-04-19T23:23:43.480Z,17.10
2018-04-19T23:26:10.941Z,17.00
2018-04-19T23:28:39.178Z,17.10
2018-04-19T23:31:06.673Z,17.00
2018-04-19T23:33:34.148Z,17.00
2018-04-19T23:36:01.652Z,16.90
2018-04-19T23:38:29.135Z,16.80
2018-04-19T23:40:56.604Z,16.70
2018-04-19T23:43:25.598Z,16.40
2018-04-19T23:45:54.616Z,16.40
2018-04-19T23:48:22.116Z,16.40
2018-04-19T23:50:49.627Z,16.30
2018-04-19T23:53:17.882Z,16.20
2018-04-19T23:55:45.377Z,16.20
2018-04-19T23:58:12.855Z,16.10
